createdAt,value
2023-04-28T00:01:46.174Z,22.23
2023-04-28T00:04:13.418Z,21.92
2023-04-28T00:06:41.210Z,21.90
2023-04-28T00:09:11.294Z,22.85
2023-04-28T00:11:41.329Z,22.77
2023-04-28T00:14:08.256Z,22.45
2023-04-28T00:16:35.525Z,20.00
2023-04-28T00:19:02.511Z,23.27
2023-04-28T00:21:29.577Z,23.30
2023-04-28T00:23:57.054Z,22.20
2023-04-28T00:26:23.992Z,23.25
2023-04-28T00:28:51.054Z,21.90
2023-04-28T00:31:18.298Z,22.52
2023-04-28T00:33:45.882Z,25.30
2023-04-28T00:36:12.902Z,23.70
2023-04-28T00:38:39.943Z,22.40
2023-04-28T00:41:07.582Z,22.17
2023-04-28T00:43:45.739Z,23.40
2023-04-28T00:46:23.364Z,22.23
2023-04-28T00:48:50.872Z,21.50
2023-04-28T00:51:18.041Z,20.60
2023-04-28T00:53:45.693Z,19.65
2023-04-28T00:56:13.255Z,18.25
2023-04-28T00:58:40.543Z,20.45
2023-04-28T01:01:10.145Z,24.17
2023-04-28T01:03:40.039Z,22.85
2023-04-28T01:06:08.699Z,18.65
2023-04-28T01:08:37.785Z,24.88
2023-04-28T01:11:05.096Z,20.83
2023-04-28T01:13:32.024Z,20.35
2023-04-28T01:15:59.333Z,21.98
2023-04-28T01:18:26.603Z,20.80
2023-04-28T01:20:53.611Z,20.42
2023-04-28T01:23:20.670Z,17.73
2023-04-28T01:25:47.641Z,16.00
2023-04-28T01:28:14.542Z,17.58
2023-04-28T01:30:41.473Z,18.52
2023-04-28T01:33:08.610Z,21.02
2023-04-28T01:35:35.768Z,18.05
2023-04-28T01:38:03.295Z,24.02
2023-04-28T01:40:30.510Z,18.38
2023-04-28T01:42:57.851Z,20.45
2023-04-28T01:45:24.937Z,18.33
2023-04-28T01:47:52.327Z,17.42
2023-04-28T01:50:19.552Z,17.58
2023-04-28T01:52:46.509Z,19.67
2023-04-28T01:55:13.994Z,17.95
2023-04-28T01:57:41.077Z,19.88
2023-04-28T02:00:08.516Z,21.50
2023-04-28T02:02:35.656Z,18.92
2023-04-28T02:05:02.827Z,19.58
2023-04-28T02:07:29.968Z,21.75
2023-04-28T02:09:57.053Z,15.82
2023-04-28T02:12:24.093Z,20.27
2023-04-28T02:14:51.389Z,21.08
2023-04-28T02:17:18.506Z,19.45
2023-04-28T02:19:45.428Z,18.83
2023-04-28T02:22:12.441Z,15.20
2023-04-28T02:24:39.671Z,18.30
2023-04-28T02:27:06.641Z,18.20
2023-04-28T02:29:33.678Z,16.20
2023-04-28T02:32:00.669Z,17.30
2023-04-28T02:34:27.749Z,18.13
2023-04-28T02:36:54.709Z,18.05
2023-04-28T02:39:22.874Z,17.50
2023-04-28T02:41:49.828Z,18.20
2023-04-28T02:44:16.888Z,16.42
2023-04-28T02:46:44.024Z,17.15
2023-04-28T02:49:11.321Z,17.27
2023-04-28T02:51:38.411Z,15.80
2023-04-28T02:54:05.527Z,13.85
2023-04-28T02:56:33.338Z,14.02
2023-04-28T02:59:00.541Z,13.90
2023-04-28T03:01:27.558Z,13.38
2023-04-28T03:03:54.728Z,15.02
2023-04-28T03:06:22.063Z,13.30
2023-04-28T03:08:49.016Z,13.95
2023-04-28T03:11:16.204Z,15.65
2023-04-28T03:13:43.141Z,16.30
2023-04-28T03:16:10.092Z,14.18
2023-04-28T03:18:37.048Z,14.00
2023-04-28T03:21:04.362Z,13.55
2023-04-28T03:23:31.492Z,20.77
2023-04-28T03:25:58.437Z,16.02
2023-04-28T03:28:25.390Z,15.98
2023-04-28T03:30:52.295Z,15.00
2023-04-28T03:33:19.432Z,16.23
2023-04-28T03:35:46.568Z,18.52
2023-04-28T03:38:13.526Z,18.70
2023-04-28T03:40:40.923Z,17.20
2023-04-28T03:43:07.974Z,17.67
2023-04-28T03:45:35.379Z,19.02
2023-04-28T03:48:02.696Z,19.45
2023-04-28T03:50:29.695Z,14.50
2023-04-28T03:52:56.639Z,19.65
2023-04-28T03:55:23.957Z,17.40
2023-04-28T03:57:50.924Z,22.33
2023-04-28T04:00:18.310Z,20.10
2023-04-28T04:02:45.644Z,20.88
2023-04-28T04:05:13.083Z,18.60
2023-04-28T04:07:40.427Z,18.70
2023-04-28T04:10:07.911Z,18.30
2023-04-28T04:12:34.827Z,16.65
2023-04-28T04:15:01.967Z,20.17
2023-04-28T04:17:29.388Z,19.70
2023-04-28T04:19:56.444Z,16.42
2023-04-28T04:22:23.667Z,19.88
2023-04-28T04:24:51.202Z,18.90
2023-04-28T04:27:18.204Z,19.20
2023-04-28T04:29:45.259Z,19.10
2023-04-28T04:32:13.351Z,18.92
2023-04-28T04:34:40.465Z,20.30
2023-04-28T04:37:07.392Z,20.42
2023-04-28T04:39:34.360Z,18.23
2023-04-28T04:42:10.161Z,18.60
2023-04-28T04:44:44.039Z,18.10
2023-04-28T04:47:11.219Z,18.85
2023-04-28T04:49:38.224Z,16.98
2023-04-28T04:52:06.880Z,18.38
2023-04-28T04:54:33.849Z,17.23
2023-04-28T04:57:01.933Z,16.58
2023-04-28T04:59:29.037Z,16.38
2023-04-28T05:01:57.027Z,17.38
2023-04-28T05:04:24.357Z,22.55
2023-04-28T05:06:51.669Z,17.08
2023-04-28T05:09:18.856Z,16.98
2023-04-28T05:11:46.460Z,18.63
2023-04-28T05:14:13.408Z,20.63
2023-04-28T05:16:41.918Z,19.58
2023-04-28T05:19:09.083Z,17.30
2023-04-28T05:21:36.025Z,14.63
2023-04-28T05:24:02.970Z,16.55
2023-04-28T05:26:30.194Z,17.85
2023-04-28T05:28:57.418Z,15.52
2023-04-28T05:31:24.599Z,15.75
2023-04-28T05:33:52.258Z,20.30
2023-04-28T05:36:19.466Z,18.95
2023-04-28T05:38:46.999Z,17.38
2023-04-28T05:41:13.915Z,17.60
2023-04-28T05:43:41.589Z,14.55
2023-04-28T05:46:18.146Z,15.32
2023-04-28T05:48:55.703Z,13.07
2023-04-28T05:51:22.771Z,16.98
2023-04-28T05:53:49.679Z,17.05
2023-04-28T05:56:17.208Z,16.02
2023-04-28T05:58:49.619Z,18.48
2023-04-28T06:01:17.470Z,18.60
2023-04-28T06:03:45.523Z,14.52
2023-04-28T06:06:13.106Z,18.20
2023-04-28T06:08:40.225Z,15.07
2023-04-28T06:11:07.276Z,14.20
2023-04-28T06:13:34.219Z,13.60
2023-04-28T06:16:01.403Z,16.20
2023-04-28T06:18:32.615Z,13.23
2023-04-28T06:20:59.822Z,15.55
2023-04-28T06:23:26.887Z,13.48
2023-04-28T06:25:54.167Z,14.27
2023-04-28T06:28:21.289Z,17.48
2023-04-28T06:30:48.226Z,15.70
2023-04-28T06:33:15.204Z,16.25
2023-04-28T06:35:42.457Z,14.50
2023-04-28T06:38:09.495Z,14.73
2023-04-28T06:40:36.678Z,14.82
2023-04-28T06:43:04.274Z,16.45
2023-04-28T06:45:31.304Z,17.75
2023-04-28T06:47:58.324Z,16.35
2023-04-28T06:50:25.421Z,12.25
2023-04-28T06:52:52.413Z,14.20
2023-04-28T06:55:19.567Z,13.05
2023-04-28T06:57:46.915Z,13.10
2023-04-28T07:00:14.574Z,16.38
2023-04-28T07:02:42.020Z,15.23
2023-04-28T07:05:09.568Z,13.20
2023-04-28T07:07:39.049Z,13.73
2023-04-28T07:10:07.141Z,12.95
2023-04-28T07:12:34.261Z,12.68
2023-04-28T07:15:01.175Z,15.02
2023-04-28T07:17:28.141Z,13.43
2023-04-28T07:19:55.124Z,12.73
2023-04-28T07:22:22.051Z,13.50
2023-04-28T07:24:49.139Z,12.52
2023-04-28T07:27:16.287Z,13.95
2023-04-28T07:29:43.260Z,11.80
2023-04-28T07:32:10.928Z,10.52
2023-04-28T07:34:38.084Z,12.45
2023-04-28T07:37:05.086Z,12.07
2023-04-28T07:39:34.145Z,13.45
2023-04-28T07:42:04.451Z,12.77
2023-04-28T07:44:31.877Z,11.10
2023-04-28T07:47:00.899Z,11.82
2023-04-28T07:49:30.021Z,11.38
2023-04-28T07:51:57.131Z,12.75
2023-04-28T07:54:25.398Z,10.18
2023-04-28T07:56:52.677Z,10.07
2023-04-28T07:59:19.827Z,10.65
2023-04-28T08:01:47.005Z,9.77
2023-04-28T08:04:14.452Z,10.60
2023-04-28T08:06:42.257Z,8.60
2023-04-28T08:09:09.533Z,8.68
2023-04-28T08:11:36.484Z,10.00
2023-04-28T08:14:03.665Z,7.00
2023-04-28T08:16:31.509Z,7.30
2023-04-28T08:18:59.868Z,7.38
2023-04-28T08:21:27.192Z,7.55
2023-04-28T08:23:54.264Z,7.35
2023-04-28T08:26:21.560Z,6.18
2023-04-28T08:28:48.525Z,7.57
2023-04-28T08:31:15.540Z,6.70
2023-04-28T08:33:44.848Z,6.43
2023-04-28T08:36:18.286Z,6.53
2023-04-28T08:38:46.162Z,4.85
2023-04-28T08:41:15.678Z,4.57
2023-04-28T08:43:43.928Z,5.80
2023-04-28T08:46:11.308Z,5.53
2023-04-28T08:48:45.161Z,6.15
2023-04-28T08:51:17.897Z,4.95
2023-04-28T08:56:25.293Z,3.25
2023-04-28T08:58:53.537Z,3.97
2023-04-28T09:01:20.500Z,3.97
2023-04-28T09:03:49.554Z,4.15
2023-04-28T09:06:16.807Z,3.40
2023-04-28T09:08:43.909Z,3.25
2023-04-28T09:11:13.780Z,3.65
2023-04-28T09:13:41.439Z,2.75
2023-04-28T09:16:08.752Z,3.25
2023-04-28T09:18:35.835Z,2.83
2023-04-28T09:21:10.046Z,2.17
2023-04-28T09:23:50.861Z,2.00
2023-04-28T09:26:18.252Z,1.70
2023-04-28T09:28:45.375Z,2.30
2023-04-28T09:31:27.346Z,1.40
2023-04-28T09:33:58.400Z,1.23
2023-04-28T09:36:31.615Z,0.70
2023-04-28T09:39:00.190Z,0.40
2023-04-28T09:41:43.948Z,0.50
2023-04-28T09:44:17.635Z,0.35
2023-04-28T09:46:46.133Z,0.30
2023-04-28T09:49:13.758Z,0.35
2023-04-28T09:51:41.768Z,0.40
2023-04-28T09:54:08.713Z,0.50
2023-04-28T09:56:40.834Z,0.30
2023-04-28T09:59:08.365Z,0.70
2023-04-28T10:01:41.073Z,1.13
2023-04-28T10:04:09.025Z,0.50
2023-04-28T10:06:39.328Z,0.80
2023-04-28T10:09:07.421Z,0.80
2023-04-28T10:11:34.937Z,0.98
2023-04-28T10:14:01.853Z,1.10
2023-04-28T10:16:31.540Z,1.10
2023-04-28T10:18:58.848Z,1.30
2023-04-28T10:21:27.994Z,1.20
2023-04-28T10:24:22.664Z,1.15
2023-04-28T10:27:09.615Z,1.15
2023-04-28T10:29:36.780Z,1.13
2023-04-28T10:32:26.615Z,0.80
2023-04-28T10:34:53.809Z,0.88
2023-04-28T10:37:21.532Z,0.80
2023-04-28T10:40:26.056Z,0.70
2023-04-28T10:42:56.726Z,1.00
2023-04-28T10:45:59.688Z,1.80
2023-04-28T10:48:26.807Z,1.73
2023-04-28T10:51:12.991Z,1.67
2023-04-28T10:53:49.584Z,1.90
2023-04-28T10:56:17.038Z,1.20
2023-04-28T10:58:49.125Z,1.35
2023-04-28T11:01:22.337Z,1.33
2023-04-28T11:04:00.305Z,1.42
2023-04-28T11:06:36.259Z,1.40
2023-04-28T11:09:15.610Z,1.55
2023-04-28T11:12:00.993Z,2.40
2023-04-28T11:14:36.223Z,2.33
2023-04-28T11:17:15.818Z,2.08
2023-04-28T11:19:45.344Z,2.25
2023-04-28T11:22:21.116Z,2.50
2023-04-28T11:24:58.676Z,2.13
2023-04-28T11:27:29.997Z,2.67
2023-04-28T11:29:57.342Z,2.33
2023-04-28T11:32:32.944Z,2.60
2023-04-28T11:35:00.293Z,1.92
2023-04-28T11:37:27.376Z,2.22
2023-04-28T11:39:54.752Z,2.10
2023-04-28T11:42:21.745Z,2.05
2023-04-28T11:44:53.239Z,2.00
2023-04-28T11:47:31.519Z,1.85
2023-04-28T11:49:59.059Z,1.60
2023-04-28T11:52:27.665Z,1.85
2023-04-28T11:55:01.097Z,2.00
2023-04-28T11:57:28.409Z,1.90
2023-04-28T12:00:19.600Z,1.73
2023-04-28T12:02:47.151Z,2.30
2023-04-28T12:05:14.730Z,1.92
2023-04-28T12:07:44.240Z,1.48
2023-04-28T12:10:18.914Z,2.67
2023-04-28T12:12:52.603Z,1.95
2023-04-28T12:16:06.060Z,2.78
2023-04-28T12:18:12.046Z,3.42
2023-04-28T12:20:39.560Z,5.65
2023-04-28T12:23:08.136Z,6.95
2023-04-28T12:25:44.636Z,6.50
2023-04-28T12:28:11.732Z,6.40
2023-04-28T12:30:44.822Z,6.22
2023-04-28T12:33:25.581Z,5.75
2023-04-28T12:35:55.204Z,4.82
2023-04-28T12:38:25.800Z,4.68
2023-04-28T12:40:53.385Z,3.70
2023-04-28T12:43:23.420Z,3.65
2023-04-28T12:45:53.330Z,3.47
2023-04-28T12:48:20.792Z,2.78
2023-04-28T12:50:47.685Z,2.88
2023-04-28T12:53:14.849Z,3.13
2023-04-28T12:55:42.204Z,2.65
2023-04-28T12:58:09.090Z,2.25
2023-04-28T13:00:36.298Z,2.83
2023-04-28T13:03:03.412Z,2.00
2023-04-28T13:05:32.303Z,1.75
2023-04-28T13:07:59.725Z,1.30
2023-04-28T13:10:27.021Z,1.40
2023-04-28T13:12:53.932Z,1.20
2023-04-28T13:15:21.111Z,1.70
2023-04-28T13:17:48.860Z,1.10
2023-04-28T13:20:16.018Z,1.20
2023-04-28T13:22:42.959Z,1.50
2023-04-28T13:25:10.215Z,1.27
2023-04-28T13:27:37.918Z,1.40
2023-04-28T13:30:06.053Z,1.33
2023-04-28T13:32:33.644Z,1.20
2023-04-28T13:35:00.796Z,1.20
2023-04-28T13:37:27.974Z,1.10
2023-04-28T13:39:54.896Z,1.00
2023-04-28T13:42:21.820Z,0.70
2023-04-28T13:44:49.437Z,1.00
2023-04-28T13:47:16.495Z,0.93
2023-04-28T13:49:43.636Z,0.60
2023-04-28T13:52:10.762Z,0.77
2023-04-28T13:54:38.156Z,0.63
2023-04-28T13:57:05.158Z,0.60
2023-04-28T13:59:32.463Z,0.65
2023-04-28T14:01:59.570Z,0.70
2023-04-28T14:04:26.624Z,0.60
2023-04-28T14:06:53.823Z,0.50
2023-04-28T14:09:20.749Z,0.70
2023-04-28T14:11:47.759Z,0.70
2023-04-28T14:14:14.802Z,0.70
2023-04-28T14:16:41.917Z,0.60
2023-04-28T14:19:09.074Z,0.52
2023-04-28T14:21:37.179Z,0.80
2023-04-28T14:24:04.383Z,0.77
2023-04-28T14:26:31.333Z,0.75
2023-04-28T14:28:58.920Z,0.90
2023-04-28T14:31:25.983Z,1.02
2023-04-28T14:33:52.990Z,0.90
2023-04-28T14:36:20.192Z,1.20
2023-04-28T14:38:47.625Z,1.00
2023-04-28T14:41:14.613Z,1.02
2023-04-28T14:43:41.536Z,1.20
2023-04-28T14:46:08.821Z,0.98
2023-04-28T14:48:37.024Z,1.00
2023-04-28T14:51:04.244Z,1.33
2023-04-28T14:53:32.013Z,1.25
2023-04-28T14:56:07.528Z,1.63
2023-04-28T14:58:44.590Z,1.70
2023-04-28T15:01:11.859Z,1.42
2023-04-28T15:03:39.080Z,1.50
2023-04-28T15:06:06.430Z,1.48
2023-04-28T15:08:33.600Z,1.75
2023-04-28T15:11:00.581Z,2.08
2023-04-28T15:13:28.793Z,2.20
2023-04-28T15:15:56.400Z,2.00
2023-04-28T15:18:24.117Z,2.38
2023-04-28T15:20:51.744Z,2.03
2023-04-28T15:23:19.919Z,2.42
2023-04-28T15:25:47.369Z,2.25
2023-04-28T15:28:14.276Z,2.10
2023-04-28T15:30:41.444Z,1.90
2023-04-28T15:33:08.417Z,2.08
2023-04-28T15:35:35.836Z,1.90
2023-04-28T15:38:02.834Z,1.70
2023-04-28T15:40:29.727Z,1.60
2023-04-28T15:42:56.801Z,1.60
2023-04-28T15:45:23.804Z,2.08
2023-04-28T15:47:51.292Z,1.80
2023-04-28T15:50:20.449Z,1.67
2023-04-28T15:52:50.273Z,1.83
2023-04-28T15:55:22.012Z,1.77
2023-04-28T15:57:49.484Z,1.13
2023-04-28T16:00:16.751Z,1.20
2023-04-28T16:02:44.693Z,1.30
2023-04-28T16:05:12.333Z,1.30
2023-04-28T16:07:41.233Z,1.30
2023-04-28T16:10:10.086Z,1.30
2023-04-28T16:12:37.577Z,1.23
2023-04-28T16:15:05.871Z,1.30
2023-04-28T16:17:35.891Z,1.13
2023-04-28T16:20:05.337Z,1.00
2023-04-28T16:22:32.528Z,1.20
2023-04-28T16:25:04.186Z,1.60
2023-04-28T16:27:31.951Z,1.10
2023-04-28T16:29:59.670Z,1.30
2023-04-28T16:32:27.034Z,1.33
2023-04-28T16:34:56.211Z,1.10
2023-04-28T16:37:23.115Z,1.20
2023-04-28T16:39:50.240Z,1.30
2023-04-28T16:42:17.396Z,1.10
2023-04-28T16:44:44.389Z,1.15
2023-04-28T16:47:14.381Z,1.20
2023-04-28T16:49:41.353Z,1.27
2023-04-28T16:52:09.024Z,1.20
2023-04-28T16:54:36.051Z,1.58
2023-04-28T16:57:04.191Z,1.20
2023-04-28T16:59:31.228Z,1.20
2023-04-28T17:01:59.146Z,1.50
2023-04-28T17:04:27.191Z,1.10
2023-04-28T17:06:54.471Z,1.08
2023-04-28T17:09:22.528Z,1.40
2023-04-28T17:11:50.262Z,1.40
2023-04-28T17:14:17.325Z,1.40
2023-04-28T17:16:44.827Z,1.25
2023-04-28T17:19:12.729Z,1.23
2023-04-28T17:21:39.903Z,1.50
2023-04-28T17:24:07.201Z,1.20
2023-04-28T17:26:34.229Z,1.63
2023-04-28T17:29:02.322Z,1.30
2023-04-28T17:31:30.021Z,1.20
2023-04-28T17:33:59.640Z,1.10
2023-04-28T17:36:27.418Z,1.10
2023-04-28T17:38:55.591Z,1.20
2023-04-28T17:41:23.226Z,0.98
2023-04-28T17:43:51.949Z,1.40
2023-04-28T17:46:19.080Z,1.58
2023-04-28T17:48:46.528Z,1.10
2023-04-28T17:51:13.517Z,1.30
2023-04-28T17:53:40.578Z,1.05
2023-04-28T17:56:08.354Z,1.02
2023-04-28T17:58:36.694Z,0.82
2023-04-28T18:01:05.090Z,1.02
2023-04-28T18:03:33.803Z,1.77
2023-04-28T18:06:01.440Z,1.08
2023-04-28T18:08:28.478Z,1.20
2023-04-28T18:10:56.486Z,1.30
2023-04-28T18:13:23.488Z,1.30
2023-04-28T18:15:50.488Z,1.10
2023-04-28T18:18:17.653Z,1.30
2023-04-28T18:20:44.770Z,0.95
2023-04-28T18:23:11.703Z,1.17
2023-04-28T18:25:38.867Z,1.10
2023-04-28T18:28:06.242Z,1.50
2023-04-28T18:30:38.810Z,1.25
2023-04-28T18:33:07.553Z,1.20
2023-04-28T18:35:35.029Z,1.40
2023-04-28T18:38:02.060Z,1.23
2023-04-28T18:40:37.547Z,1.13
2023-04-28T18:43:08.082Z,1.10
2023-04-28T18:45:37.421Z,1.30
2023-04-28T18:48:04.894Z,1.13
2023-04-28T18:50:33.069Z,1.00
2023-04-28T18:53:04.584Z,0.85
2023-04-28T18:55:34.412Z,1.20
2023-04-28T18:58:04.679Z,1.20
2023-04-28T19:00:34.638Z,1.00
2023-04-28T19:03:03.881Z,2.60
2023-04-28T19:05:30.957Z,2.33
2023-04-28T19:07:58.081Z,1.33
2023-04-28T19:10:25.058Z,1.52
2023-04-28T19:12:52.038Z,1.40
2023-04-28T19:15:19.472Z,1.50
2023-04-28T19:17:46.818Z,2.70
2023-04-28T19:20:14.005Z,1.30
2023-04-28T19:22:41.569Z,1.50
2023-04-28T19:25:09.427Z,1.30
2023-04-28T19:27:40.854Z,1.13
2023-04-28T19:30:11.128Z,1.30
2023-04-28T19:32:38.935Z,1.30
2023-04-28T19:35:07.275Z,1.42
2023-04-28T19:37:35.196Z,1.92
2023-04-28T19:40:07.194Z,1.50
2023-04-28T19:42:37.524Z,1.40
2023-04-28T19:45:05.066Z,1.50
2023-04-28T19:47:34.800Z,1.35
2023-04-28T19:50:02.185Z,1.70
2023-04-28T19:52:29.274Z,1.30
2023-04-28T19:54:57.280Z,1.52
2023-04-28T19:57:24.404Z,1.00
2023-04-28T19:59:51.541Z,0.90
2023-04-28T20:02:21.228Z,1.23
2023-04-28T20:04:49.362Z,1.55
2023-04-28T20:07:16.408Z,0.95
2023-04-28T20:09:44.478Z,1.30
2023-04-28T20:12:11.642Z,1.00
2023-04-28T20:14:38.634Z,1.45
2023-04-28T20:17:06.249Z,1.17
2023-04-28T20:19:33.357Z,1.45
2023-04-28T20:22:04.870Z,1.10
2023-04-28T20:24:34.819Z,1.27
2023-04-28T20:27:02.439Z,1.35
2023-04-28T20:29:35.061Z,1.30
2023-04-28T20:32:03.662Z,1.23
2023-04-28T20:34:31.781Z,1.30
2023-04-28T20:36:59.677Z,1.27
2023-04-28T20:39:26.963Z,1.05
2023-04-28T20:41:53.882Z,0.98
2023-04-28T20:44:20.830Z,1.10
2023-04-28T20:46:47.806Z,1.33
2023-04-28T20:49:15.256Z,1.20
2023-04-28T20:51:45.322Z,0.93
2023-04-28T20:54:12.948Z,1.13
2023-04-28T20:56:42.083Z,0.98
2023-04-28T20:59:09.120Z,1.27
2023-04-28T21:01:36.063Z,1.00
2023-04-28T21:04:03.413Z,1.50
2023-04-28T21:06:30.524Z,1.40
2023-04-28T21:08:57.495Z,1.30
2023-04-28T21:11:25.739Z,1.02
2023-04-28T21:13:52.648Z,0.90
2023-04-28T21:16:21.674Z,1.25
2023-04-28T21:18:49.925Z,1.60
2023-04-28T21:21:16.980Z,1.73
2023-04-28T21:23:44.375Z,1.80
2023-04-28T21:26:11.656Z,1.98
2023-04-28T21:28:40.019Z,1.58
2023-04-28T21:31:07.206Z,2.10
2023-04-28T21:33:34.523Z,2.15
2023-04-28T21:36:08.094Z,1.98
2023-04-28T21:38:36.908Z,1.55
2023-04-28T21:41:04.156Z,1.52
2023-04-28T21:43:31.288Z,1.77
2023-04-28T21:45:58.577Z,1.63
2023-04-28T21:48:25.538Z,1.55
2023-04-28T21:50:52.446Z,1.33
2023-04-28T21:53:20.655Z,2.15
2023-04-28T21:55:47.657Z,1.60
2023-04-28T21:58:15.295Z,1.80
2023-04-28T22:00:48.614Z,1.77
2023-04-28T22:03:16.272Z,1.88
2023-04-28T22:05:44.743Z,1.20
2023-04-28T22:08:12.299Z,1.27
2023-04-28T22:10:39.515Z,1.27
2023-04-28T22:13:06.988Z,1.30
2023-04-28T22:15:34.121Z,1.85
2023-04-28T22:18:01.339Z,1.73
2023-04-28T22:20:28.578Z,1.63
2023-04-28T22:22:55.704Z,1.50
2023-04-28T22:25:22.822Z,1.83
2023-04-28T22:27:49.972Z,2.08
2023-04-28T22:30:17.120Z,2.15
2023-04-28T22:32:44.930Z,2.20
2023-04-28T22:35:16.937Z,1.90
2023-04-28T22:37:44.224Z,2.10
2023-04-28T22:40:11.510Z,1.83
2023-04-28T22:42:40.206Z,2.00
2023-04-28T22:45:07.964Z,1.88
2023-04-28T22:47:35.678Z,2.22
2023-04-28T22:50:06.135Z,2.10
2023-04-28T22:52:34.320Z,2.28
2023-04-28T22:55:01.651Z,1.98
2023-04-28T22:57:29.145Z,1.85
2023-04-28T22:59:56.279Z,1.92
2023-04-28T23:02:23.556Z,1.65
2023-04-28T23:04:51.184Z,1.92
2023-04-28T23:07:18.508Z,2.08
2023-04-28T23:09:45.568Z,1.73
2023-04-28T23:12:12.481Z,1.65
2023-04-28T23:14:39.436Z,2.35
2023-04-28T23:17:06.444Z,1.40
2023-04-28T23:19:35.560Z,2.30
2023-04-28T23:22:02.555Z,2.83
2023-04-28T23:24:29.558Z,1.30
2023-04-28T23:26:56.744Z,1.75
2023-04-28T23:29:23.973Z,2.05
2023-04-28T23:31:54.664Z,1.88
2023-04-28T23:34:23.377Z,2.90
2023-04-28T23:36:50.921Z,2.05
2023-04-28T23:39:17.915Z,1.55
2023-04-28T23:41:44.855Z,2.45
2023-04-28T23:44:11.936Z,1.70
2023-04-28T23:46:39.005Z,2.13
2023-04-28T23:49:05.967Z,2.35
2023-04-28T23:51:33.021Z,2.42
2023-04-28T23:54:00.141Z,2.00
2023-04-28T23:56:27.377Z,1.63
2023-04-28T23:58:54.573Z,1.80
